createdAt,value
2019-03-18T00:01:46.665Z,2.68
2019-03-18T00:04:12.848Z,2.77
2019-03-18T00:06:40.055Z,2.67
2019-03-18T00:09:06.263Z,2.77
2019-03-18T00:11:33.475Z,2.78
2019-03-18T00:13:59.592Z,2.70
2019-03-18T00:16:25.667Z,2.65
2019-03-18T00:18:52.014Z,2.66
2019-03-18T00:21:18.166Z,2.71
2019-03-18T00:23:44.227Z,2.72
2019-03-18T00:26:10.357Z,2.72
2019-03-18T00:28:36.426Z,2.73
2019-03-18T00:31:02.562Z,2.74
2019-03-18T00:33:29.726Z,2.74
2019-03-18T00:35:55.902Z,2.75
2019-03-18T00:38:22.009Z,2.72
2019-03-18T00:40:48.113Z,2.74
2019-03-18T00:43:14.216Z,2.66
2019-03-18T00:45:40.574Z,2.66
2019-03-18T00:48:06.696Z,2.62
2019-03-18T00:50:32.790Z,2.59
2019-03-18T00:52:59.179Z,2.61
2019-03-18T00:55:25.243Z,2.60
2019-03-18T00:57:51.449Z,2.58
2019-03-18T01:00:18.049Z,2.60
2019-03-18T01:02:44.254Z,2.56
2019-03-18T01:05:10.841Z,2.58
2019-03-18T01:07:38.228Z,2.57
2019-03-18T01:10:08.132Z,2.62
2019-03-18T01:12:34.440Z,2.55
2019-03-18T01:15:00.511Z,2.59
2019-03-18T01:17:26.724Z,2.64
2019-03-18T01:19:52.818Z,2.63
2019-03-18T01:22:18.981Z,2.58
2019-03-18T01:24:46.148Z,2.66
2019-03-18T01:27:12.345Z,2.66
2019-03-18T01:29:38.443Z,2.72
2019-03-18T01:32:04.506Z,2.73
2019-03-18T01:34:30.635Z,2.69
2019-03-18T01:36:57.487Z,2.72
2019-03-18T01:39:23.574Z,2.74
2019-03-18T01:41:49.804Z,2.75
2019-03-18T01:44:17.033Z,2.71
2019-03-18T01:46:43.129Z,2.65
2019-03-18T01:49:09.222Z,2.65
2019-03-18T01:51:35.324Z,2.68
2019-03-18T01:54:01.376Z,2.75
2019-03-18T01:56:27.502Z,2.74
2019-03-18T01:58:53.654Z,2.70
2019-03-18T02:01:19.767Z,2.81
2019-03-18T02:03:45.843Z,2.87
2019-03-18T02:06:12.131Z,2.90
2019-03-18T02:08:38.189Z,2.97
2019-03-18T02:11:04.301Z,3.00
2019-03-18T02:13:30.374Z,3.00
2019-03-18T02:15:56.464Z,2.98
2019-03-18T02:18:22.561Z,3.03
2019-03-18T02:20:48.669Z,3.04
2019-03-18T02:23:14.731Z,3.08
2019-03-18T02:25:40.803Z,3.04
2019-03-18T02:28:06.935Z,3.14
2019-03-18T02:30:33.222Z,3.07
2019-03-18T02:32:59.414Z,3.05
2019-03-18T02:35:25.520Z,3.07
2019-03-18T02:37:51.616Z,3.11
2019-03-18T02:40:17.675Z,3.03
2019-03-18T02:42:43.872Z,3.07
2019-03-18T02:45:10.141Z,3.12
2019-03-18T02:47:36.212Z,3.17
2019-03-18T02:50:03.816Z,3.16
2019-03-18T02:52:29.856Z,3.17
2019-03-18T02:54:55.964Z,3.17
2019-03-18T02:57:22.046Z,3.17
2019-03-18T02:59:48.219Z,3.15
2019-03-18T03:02:14.467Z,3.10
2019-03-18T03:04:40.595Z,3.15
2019-03-18T03:07:06.796Z,3.17
2019-03-18T03:09:33.959Z,3.11
2019-03-18T03:12:00.036Z,3.05
2019-03-18T03:14:26.124Z,2.95
2019-03-18T03:16:52.220Z,2.96
2019-03-18T03:19:18.315Z,2.92
2019-03-18T03:21:44.473Z,2.88
2019-03-18T03:24:10.567Z,2.88
2019-03-18T03:26:36.686Z,2.90
2019-03-18T03:29:02.860Z,2.88
2019-03-18T03:31:28.965Z,2.84
2019-03-18T03:33:55.027Z,2.80
2019-03-18T03:36:22.328Z,2.82
2019-03-18T03:38:48.441Z,2.79
2019-03-18T03:41:17.672Z,2.78
2019-03-18T03:43:42.507Z,2.75
2019-03-18T03:46:09.688Z,2.77
2019-03-18T03:48:35.814Z,2.78
2019-03-18T03:51:01.877Z,2.74
2019-03-18T03:53:30.999Z,2.71
2019-03-18T03:55:56.120Z,2.74
2019-03-18T03:58:22.376Z,2.73
2019-03-18T04:00:48.994Z,2.75
2019-03-18T04:03:15.154Z,2.79
2019-03-18T04:05:41.360Z,2.79
2019-03-18T04:08:07.622Z,2.87
2019-03-18T04:10:33.686Z,2.87
2019-03-18T04:12:59.884Z,2.88
2019-03-18T04:15:26.059Z,2.95
2019-03-18T04:17:52.253Z,2.93
2019-03-18T04:20:18.424Z,2.94
2019-03-18T04:22:44.642Z,2.93
2019-03-18T04:25:10.899Z,2.91
2019-03-18T04:27:36.977Z,2.94
2019-03-18T04:30:15.403Z,2.93
2019-03-18T04:32:41.586Z,2.92
2019-03-18T04:35:07.958Z,2.90
2019-03-18T04:37:34.076Z,2.89
2019-03-18T04:40:00.279Z,2.87
2019-03-18T04:42:26.446Z,2.79
2019-03-18T04:44:52.529Z,2.79
2019-03-18T04:47:18.609Z,2.81
2019-03-18T04:49:44.729Z,2.81
2019-03-18T04:52:10.795Z,2.83
2019-03-18T04:54:36.870Z,2.88
2019-03-18T04:57:03.110Z,2.82
2019-03-18T04:59:29.211Z,2.83
2019-03-18T05:01:55.349Z,2.87
2019-03-18T05:04:21.477Z,2.90
2019-03-18T05:06:47.581Z,2.88
2019-03-18T05:09:13.742Z,2.86
2019-03-18T05:11:39.965Z,2.81
2019-03-18T05:14:06.030Z,2.82
2019-03-18T05:16:32.129Z,2.87
2019-03-18T05:18:58.202Z,2.89
2019-03-18T05:21:24.359Z,2.88
2019-03-18T05:23:52.339Z,2.89
2019-03-18T05:26:18.400Z,2.89
2019-03-18T05:28:44.507Z,2.93
2019-03-18T05:31:10.607Z,2.88
2019-03-18T05:33:36.877Z,2.82
2019-03-18T05:36:02.994Z,2.74
2019-03-18T05:38:29.102Z,2.77
2019-03-18T05:40:55.224Z,2.78
2019-03-18T05:43:21.314Z,2.77
2019-03-18T05:45:47.457Z,2.76
2019-03-18T05:48:13.529Z,2.80
2019-03-18T05:50:39.730Z,2.82
2019-03-18T05:53:05.846Z,2.84
2019-03-18T05:55:31.939Z,2.87
2019-03-18T05:57:58.141Z,2.86
2019-03-18T06:00:24.213Z,2.82
2019-03-18T06:02:50.312Z,2.77
2019-03-18T06:05:16.510Z,2.72
2019-03-18T06:07:43.737Z,2.67
2019-03-18T06:10:11.245Z,2.65
2019-03-18T06:12:37.336Z,2.70
2019-03-18T06:15:06.418Z,2.79
2019-03-18T06:17:33.643Z,2.88
2019-03-18T06:19:59.738Z,2.99
2019-03-18T06:22:25.846Z,3.05
2019-03-18T06:24:51.948Z,3.05
2019-03-18T06:27:18.058Z,3.03
2019-03-18T06:29:44.185Z,3.09
2019-03-18T06:32:10.508Z,3.11
2019-03-18T06:34:36.616Z,3.12
2019-03-18T06:37:02.986Z,3.16
2019-03-18T06:39:29.090Z,3.15
2019-03-18T06:41:55.302Z,3.20
2019-03-18T06:44:21.488Z,3.27
2019-03-18T06:46:47.602Z,3.46
2019-03-18T06:49:13.678Z,3.45
2019-03-18T06:51:39.803Z,3.40
2019-03-18T06:54:05.886Z,3.42
2019-03-18T06:56:32.057Z,3.38
2019-03-18T06:58:58.240Z,3.32
2019-03-18T07:01:24.564Z,3.47
2019-03-18T07:03:50.692Z,3.57
2019-03-18T07:06:16.757Z,3.58
2019-03-18T07:08:42.897Z,3.66
2019-03-18T07:11:08.996Z,4.01
2019-03-18T07:13:35.109Z,4.02
2019-03-18T07:16:01.205Z,4.00
2019-03-18T07:18:27.422Z,3.93
2019-03-18T07:20:54.626Z,3.92
2019-03-18T07:23:20.730Z,3.91
2019-03-18T07:25:47.724Z,3.91
2019-03-18T07:28:13.826Z,3.89
2019-03-18T07:30:39.942Z,3.88
2019-03-18T07:33:06.116Z,3.85
2019-03-18T07:35:32.248Z,3.84
2019-03-18T07:37:58.469Z,3.81
2019-03-18T07:40:24.667Z,3.79
2019-03-18T07:42:50.757Z,3.87
2019-03-18T07:45:16.978Z,3.91
2019-03-18T07:47:43.156Z,3.89
2019-03-18T07:50:13.273Z,3.93
2019-03-18T07:52:39.478Z,3.99
2019-03-18T07:55:06.868Z,3.88
2019-03-18T07:57:33.096Z,4.01
2019-03-18T07:59:59.184Z,4.05
2019-03-18T08:02:25.385Z,4.07
2019-03-18T08:04:51.478Z,4.19
2019-03-18T08:07:17.651Z,4.09
2019-03-18T08:09:43.736Z,4.21
2019-03-18T08:12:09.851Z,4.32
2019-03-18T08:14:35.944Z,4.41
2019-03-18T08:17:02.242Z,4.66
2019-03-18T08:19:28.464Z,4.78
2019-03-18T08:21:54.562Z,4.76
2019-03-18T08:24:20.675Z,4.68
2019-03-18T08:26:46.860Z,4.72
2019-03-18T08:29:13.005Z,4.67
2019-03-18T08:31:39.095Z,4.74
2019-03-18T08:34:05.292Z,4.72
2019-03-18T08:36:31.435Z,5.16
2019-03-18T08:38:57.553Z,5.19
2019-03-18T08:41:23.889Z,5.57
2019-03-18T08:43:50.113Z,5.98
2019-03-18T08:46:16.270Z,5.39
2019-03-18T08:48:55.123Z,5.54
2019-03-18T08:51:10.500Z,5.78
2019-03-18T08:53:36.581Z,6.25
2019-03-18T08:56:02.895Z,6.25
2019-03-18T08:58:29.085Z,5.89
2019-03-18T09:00:55.382Z,5.72
2019-03-18T09:03:21.451Z,5.49
2019-03-18T09:05:47.565Z,5.42
2019-03-18T09:08:13.680Z,5.49
2019-03-18T09:10:39.739Z,5.55
2019-03-18T09:13:05.878Z,5.64
2019-03-18T09:15:31.979Z,5.77
2019-03-18T09:17:58.454Z,5.90
2019-03-18T09:20:24.547Z,5.87
2019-03-18T09:22:50.723Z,5.69
2019-03-18T09:25:16.930Z,5.79
2019-03-18T09:27:43.015Z,6.00
2019-03-18T09:30:17.240Z,6.27
2019-03-18T09:32:43.351Z,6.47
2019-03-18T09:35:09.683Z,6.15
2019-03-18T09:37:36.053Z,6.29
2019-03-18T09:40:04.761Z,5.81
2019-03-18T09:42:30.824Z,5.97
2019-03-18T09:44:56.967Z,5.94
2019-03-18T09:47:23.177Z,6.16
2019-03-18T09:49:49.353Z,6.29
2019-03-18T09:52:15.461Z,6.45
2019-03-18T09:54:41.685Z,6.43
2019-03-18T09:57:07.865Z,6.59
2019-03-18T09:59:34.068Z,6.80
2019-03-18T10:02:00.160Z,6.44
2019-03-18T10:04:26.277Z,6.68
2019-03-18T10:06:52.350Z,6.77
2019-03-18T10:09:18.594Z,7.08
2019-03-18T10:11:44.930Z,6.97
2019-03-18T10:14:11.020Z,6.78
2019-03-18T10:16:37.136Z,6.67
2019-03-18T10:19:03.434Z,6.82
2019-03-18T10:21:29.671Z,6.90
2019-03-18T10:23:55.762Z,6.54
2019-03-18T10:26:21.897Z,6.76
2019-03-18T10:28:48.149Z,7.11
2019-03-18T10:31:14.236Z,7.59
2019-03-18T10:33:40.524Z,7.63
2019-03-18T10:36:06.811Z,7.40
2019-03-18T10:38:32.921Z,7.16
2019-03-18T10:40:59.783Z,7.82
2019-03-18T10:43:26.237Z,7.92
2019-03-18T10:45:52.409Z,8.36
2019-03-18T10:48:18.616Z,7.92
2019-03-18T10:50:44.705Z,8.19
2019-03-18T10:53:11.029Z,8.16
2019-03-18T10:55:37.255Z,8.36
2019-03-18T10:58:03.567Z,8.31
2019-03-18T11:00:29.660Z,8.31
2019-03-18T11:02:55.851Z,8.27
2019-03-18T11:05:22.079Z,8.04
2019-03-18T11:07:48.296Z,7.99
2019-03-18T11:10:14.769Z,8.39
2019-03-18T11:12:41.083Z,8.04
2019-03-18T11:15:10.209Z,8.06
2019-03-18T11:17:36.277Z,8.17
2019-03-18T11:20:05.292Z,8.68
2019-03-18T11:22:31.541Z,8.77
2019-03-18T11:24:57.726Z,9.14
2019-03-18T11:27:23.834Z,8.52
2019-03-18T11:29:50.148Z,7.60
2019-03-18T11:32:16.327Z,7.26
2019-03-18T11:34:42.530Z,7.34
2019-03-18T11:37:08.784Z,7.28
2019-03-18T11:39:34.983Z,7.35
2019-03-18T11:42:01.164Z,7.33
2019-03-18T11:44:27.355Z,7.45
2019-03-18T11:46:53.670Z,7.37
2019-03-18T11:49:20.097Z,7.28
2019-03-18T11:51:46.330Z,7.12
2019-03-18T11:54:12.543Z,7.09
2019-03-18T11:56:38.844Z,6.81
2019-03-18T11:59:05.196Z,6.78
2019-03-18T12:01:31.360Z,6.53
2019-03-18T12:03:57.549Z,6.39
2019-03-18T12:06:23.669Z,6.31
2019-03-18T12:08:50.098Z,6.42
2019-03-18T12:11:16.322Z,6.53
2019-03-18T12:13:42.467Z,6.86
2019-03-18T12:16:08.657Z,7.07
2019-03-18T12:18:34.849Z,6.85
2019-03-18T12:21:01.186Z,7.07
2019-03-18T12:23:27.388Z,7.13
2019-03-18T12:25:53.592Z,6.47
2019-03-18T12:28:19.829Z,6.24
2019-03-18T12:30:46.079Z,5.97
2019-03-18T12:33:12.303Z,5.74
2019-03-18T12:35:38.468Z,5.77
2019-03-18T12:38:04.666Z,5.76
2019-03-18T12:40:30.899Z,5.74
2019-03-18T12:42:57.202Z,6.04
2019-03-18T12:45:23.541Z,6.24
2019-03-18T12:47:49.854Z,6.42
2019-03-18T12:50:38.676Z,6.53
2019-03-18T12:52:50.940Z,6.43
2019-03-18T12:55:17.275Z,6.72
2019-03-18T12:57:43.599Z,6.60
2019-03-18T13:00:16.226Z,6.50
2019-03-18T13:02:42.600Z,6.88
2019-03-18T13:05:09.349Z,7.29
2019-03-18T13:07:35.642Z,7.14
2019-03-18T13:10:05.852Z,6.89
2019-03-18T13:12:32.136Z,7.79
2019-03-18T13:14:58.257Z,8.16
2019-03-18T13:17:24.376Z,8.73
2019-03-18T13:19:50.580Z,9.14
2019-03-18T13:22:16.806Z,8.99
2019-03-18T13:24:43.159Z,9.36
2019-03-18T13:27:09.351Z,8.81
2019-03-18T13:29:35.458Z,8.36
2019-03-18T13:32:01.631Z,8.53
2019-03-18T13:34:27.874Z,7.98
2019-03-18T13:36:54.164Z,8.12
2019-03-18T13:39:20.348Z,7.92
2019-03-18T13:41:46.450Z,7.95
2019-03-18T13:44:12.789Z,7.80
2019-03-18T13:46:38.966Z,7.54
2019-03-18T13:49:05.208Z,6.75
2019-03-18T13:51:31.454Z,6.75
2019-03-18T13:53:57.623Z,6.68
2019-03-18T13:56:23.871Z,6.59
2019-03-18T13:58:49.974Z,6.33
2019-03-18T14:01:16.296Z,6.24
2019-03-18T14:03:42.392Z,6.39
2019-03-18T14:06:08.998Z,6.77
2019-03-18T14:08:35.244Z,7.30
2019-03-18T14:11:02.819Z,6.88
2019-03-18T14:13:29.169Z,7.03
2019-03-18T14:15:55.387Z,6.39
2019-03-18T14:18:22.792Z,6.04
2019-03-18T14:20:49.047Z,5.97
2019-03-18T14:23:15.232Z,5.68
2019-03-18T14:25:41.575Z,5.29
2019-03-18T14:28:07.731Z,5.10
2019-03-18T14:30:34.026Z,5.10
2019-03-18T14:33:00.261Z,5.12
2019-03-18T14:35:26.337Z,5.29
2019-03-18T14:37:52.560Z,5.74
2019-03-18T14:40:19.738Z,6.00
2019-03-18T14:42:46.020Z,6.13
2019-03-18T14:45:17.321Z,6.26
2019-03-18T14:47:43.557Z,6.79
2019-03-18T14:50:11.057Z,7.17
2019-03-18T14:52:37.135Z,7.36
2019-03-18T14:55:06.264Z,7.32
2019-03-18T14:57:32.358Z,7.56
2019-03-18T14:59:58.516Z,7.60
2019-03-18T15:02:24.794Z,7.72
2019-03-18T15:04:51.139Z,7.66
2019-03-18T15:07:17.234Z,7.90
2019-03-18T15:09:43.382Z,7.69
2019-03-18T15:12:09.693Z,7.78
2019-03-18T15:14:35.927Z,7.58
2019-03-18T15:17:02.106Z,7.80
2019-03-18T15:19:28.298Z,7.83
2019-03-18T15:21:58.751Z,7.86
2019-03-18T15:24:22.625Z,7.95
2019-03-18T15:26:48.889Z,7.81
2019-03-18T15:29:15.078Z,7.77
2019-03-18T15:31:41.811Z,7.51
2019-03-18T15:34:09.239Z,7.48
2019-03-18T15:36:35.364Z,7.70
2019-03-18T15:39:01.755Z,7.68
2019-03-18T15:41:28.107Z,7.80
2019-03-18T15:43:54.337Z,8.08
2019-03-18T15:46:20.677Z,8.08
2019-03-18T15:48:47.123Z,7.94
2019-03-18T15:51:13.454Z,8.06
2019-03-18T15:53:39.579Z,8.38
2019-03-18T15:56:05.741Z,8.34
2019-03-18T15:58:31.837Z,8.74
2019-03-18T16:00:57.958Z,9.09
2019-03-18T16:03:24.079Z,8.90
2019-03-18T16:05:50.266Z,8.39
2019-03-18T16:08:16.611Z,8.05
2019-03-18T16:10:42.972Z,8.21
2019-03-18T16:13:09.195Z,8.27
2019-03-18T16:15:35.442Z,8.22
2019-03-18T16:18:01.630Z,7.94
2019-03-18T16:20:27.725Z,7.83
2019-03-18T16:22:53.935Z,7.52
2019-03-18T16:25:20.443Z,7.50
2019-03-18T16:27:46.701Z,7.30
2019-03-18T16:30:20.502Z,7.20
2019-03-18T16:32:46.947Z,7.13
2019-03-18T16:35:15.890Z,7.00
2019-03-18T16:37:42.151Z,6.99
2019-03-18T16:40:10.678Z,7.02
2019-03-18T16:42:37.003Z,6.96
2019-03-18T16:45:06.629Z,7.03
2019-03-18T16:47:32.785Z,6.93
2019-03-18T16:49:59.009Z,6.79
2019-03-18T16:52:35.246Z,6.83
2019-03-18T16:54:53.439Z,6.63
2019-03-18T16:57:19.564Z,6.52
2019-03-18T16:59:46.945Z,6.38
2019-03-18T17:02:13.070Z,5.98
2019-03-18T17:04:39.266Z,5.87
2019-03-18T17:07:05.412Z,5.75
2019-03-18T17:09:31.696Z,5.80
2019-03-18T17:11:58.003Z,5.49
2019-03-18T17:14:24.128Z,5.52
2019-03-18T17:16:50.256Z,5.54
2019-03-18T17:19:16.676Z,5.54
2019-03-18T17:21:42.899Z,5.57
2019-03-18T17:24:09.031Z,5.48
2019-03-18T17:26:35.352Z,5.47
2019-03-18T17:29:01.674Z,5.42
2019-03-18T17:31:27.908Z,5.37
2019-03-18T17:33:54.145Z,5.20
2019-03-18T17:36:20.517Z,5.23
2019-03-18T17:38:47.705Z,5.01
2019-03-18T17:41:13.906Z,5.12
2019-03-18T17:43:40.005Z,4.90
2019-03-18T17:46:06.292Z,4.93
2019-03-18T17:48:32.531Z,4.90
2019-03-18T17:50:58.942Z,4.87
2019-03-18T17:53:25.060Z,4.89
2019-03-18T17:55:51.409Z,4.86
2019-03-18T17:58:17.637Z,4.94
2019-03-18T18:00:45.960Z,4.78
2019-03-18T18:03:12.104Z,4.72
2019-03-18T18:05:38.339Z,4.57
2019-03-18T18:08:04.689Z,4.44
2019-03-18T18:10:31.970Z,4.63
2019-03-18T18:12:58.178Z,4.68
2019-03-18T18:15:24.619Z,4.78
2019-03-18T18:17:50.911Z,4.83
2019-03-18T18:20:17.143Z,4.78
2019-03-18T18:22:43.414Z,4.78
2019-03-18T18:25:11.061Z,4.79
2019-03-18T18:27:37.257Z,4.83
2019-03-18T18:30:06.886Z,4.80
2019-03-18T18:32:33.303Z,4.67
2019-03-18T18:34:59.614Z,4.74
2019-03-18T18:37:26.783Z,4.73
2019-03-18T18:39:52.878Z,4.76
2019-03-18T18:42:19.128Z,4.81
2019-03-18T18:44:45.228Z,4.82
2019-03-18T18:47:11.523Z,4.77
2019-03-18T18:49:37.909Z,4.73
2019-03-18T18:52:04.211Z,4.76
2019-03-18T18:54:30.566Z,4.68
2019-03-18T18:56:56.784Z,4.66
2019-03-18T18:59:23.205Z,4.50
2019-03-18T19:01:50.670Z,4.43
2019-03-18T19:04:17.217Z,4.14
2019-03-18T19:06:43.352Z,4.31
2019-03-18T19:09:09.506Z,4.36
2019-03-18T19:11:35.689Z,4.17
2019-03-18T19:14:01.927Z,3.98
2019-03-18T19:16:28.399Z,4.07
2019-03-18T19:18:54.455Z,4.08
2019-03-18T19:21:20.650Z,4.07
2019-03-18T19:23:46.872Z,4.09
2019-03-18T19:26:13.091Z,4.02
2019-03-18T19:28:39.357Z,3.91
2019-03-18T19:31:05.464Z,3.77
2019-03-18T19:33:31.781Z,3.89
2019-03-18T19:35:58.209Z,3.98
2019-03-18T19:38:24.324Z,3.86
2019-03-18T19:40:50.419Z,3.93
2019-03-18T19:43:16.611Z,4.02
2019-03-18T19:45:43.125Z,4.04
2019-03-18T19:48:09.336Z,4.04
2019-03-18T19:50:35.452Z,4.07
2019-03-18T19:53:01.716Z,4.07
2019-03-18T19:55:28.039Z,3.92
2019-03-18T19:57:54.273Z,3.78
2019-03-18T20:00:22.858Z,3.56
2019-03-18T20:02:49.332Z,3.51
2019-03-18T20:05:18.648Z,3.43
2019-03-18T20:07:43.727Z,3.34
2019-03-18T20:10:15.550Z,3.35
2019-03-18T20:12:41.752Z,3.41
2019-03-18T20:15:10.664Z,3.37
2019-03-18T20:17:36.908Z,3.36
2019-03-18T20:20:06.880Z,3.38
2019-03-18T20:22:33.324Z,3.33
2019-03-18T20:24:59.658Z,3.22
2019-03-18T20:27:25.999Z,3.20
2019-03-18T20:29:52.312Z,3.27
2019-03-18T20:32:18.646Z,3.19
2019-03-18T20:34:44.933Z,3.16
2019-03-18T20:37:12.159Z,3.08
2019-03-18T20:39:39.461Z,3.10
2019-03-18T20:42:05.595Z,3.02
2019-03-18T20:44:31.768Z,3.03
2019-03-18T20:46:57.913Z,3.03
2019-03-18T20:49:24.106Z,3.15
2019-03-18T20:51:50.330Z,3.15
2019-03-18T20:54:16.623Z,3.00
2019-03-18T20:56:42.814Z,2.91
2019-03-18T20:59:09.063Z,2.95
2019-03-18T21:01:35.232Z,3.05
2019-03-18T21:04:01.453Z,3.09
2019-03-18T21:06:27.555Z,3.06
2019-03-18T21:08:54.894Z,2.98
2019-03-18T21:11:21.015Z,2.82
2019-03-18T21:13:56.753Z,2.77
2019-03-18T21:16:15.269Z,2.77
2019-03-18T21:18:43.912Z,2.76
2019-03-18T21:21:09.411Z,2.77
2019-03-18T21:23:36.546Z,2.76
2019-03-18T21:26:02.950Z,2.77
2019-03-18T21:28:29.179Z,2.75
2019-03-18T21:30:55.279Z,2.70
2019-03-18T21:33:21.551Z,2.64
2019-03-18T21:35:47.752Z,2.64
2019-03-18T21:38:13.858Z,2.79
2019-03-18T21:40:40.087Z,2.84
2019-03-18T21:43:06.304Z,2.79
2019-03-18T21:45:32.502Z,2.69
2019-03-18T21:47:58.803Z,2.75
2019-03-18T21:50:24.888Z,2.75
2019-03-18T21:52:52.220Z,2.45
2019-03-18T21:55:18.648Z,2.30
2019-03-18T21:57:45.022Z,2.25
2019-03-18T22:00:21.777Z,2.27
2019-03-18T22:02:48.091Z,2.37
2019-03-18T22:05:14.411Z,2.40
2019-03-18T22:07:40.721Z,2.45
2019-03-18T22:10:18.249Z,2.52
2019-03-18T22:12:45.341Z,2.45
2019-03-18T22:15:12.960Z,2.21
2019-03-18T22:17:39.380Z,2.02
2019-03-18T22:20:13.752Z,1.93
2019-03-18T22:22:39.965Z,1.85
2019-03-18T22:25:07.868Z,1.86
2019-03-18T22:27:34.072Z,2.02
2019-03-18T22:30:00.326Z,2.14
2019-03-18T22:32:26.446Z,2.19
2019-03-18T22:34:52.640Z,2.22
2019-03-18T22:37:18.861Z,2.08
2019-03-18T22:39:44.962Z,2.08
2019-03-18T22:42:11.052Z,2.12
2019-03-18T22:44:37.176Z,2.12
2019-03-18T22:47:03.484Z,2.07
2019-03-18T22:49:29.541Z,2.14
2019-03-18T22:51:55.651Z,2.17
2019-03-18T22:54:21.954Z,2.09
2019-03-18T22:56:48.041Z,1.99
2019-03-18T22:59:14.099Z,1.97
2019-03-18T23:01:40.332Z,2.02
2019-03-18T23:04:06.424Z,2.08
2019-03-18T23:06:32.766Z,1.94
2019-03-18T23:08:58.992Z,1.83
2019-03-18T23:11:25.104Z,1.76
2019-03-18T23:13:51.519Z,1.83
2019-03-18T23:16:19.538Z,1.96
2019-03-18T23:18:45.732Z,2.08
2019-03-18T23:21:13.052Z,2.11
2019-03-18T23:23:39.153Z,2.08
2019-03-18T23:26:05.360Z,2.17
2019-03-18T23:28:32.676Z,1.97
2019-03-18T23:30:58.999Z,1.86
2019-03-18T23:33:25.079Z,1.89
2019-03-18T23:35:51.414Z,1.86
2019-03-18T23:38:17.648Z,1.76
2019-03-18T23:40:44.828Z,1.71
2019-03-18T23:43:10.937Z,1.74
2019-03-18T23:45:37.135Z,1.71
2019-03-18T23:48:03.615Z,1.68
2019-03-18T23:50:29.665Z,1.66
2019-03-18T23:52:55.757Z,1.65
2019-03-18T23:55:21.929Z,1.55
2019-03-18T23:57:48.119Z,1.50
